Joy — V2EI9 — position and weather

sailwx.info

Track history (hours):
 
Tides and Currents Weather Stations Pressure Air Temp Water Temp Dewpoint Dewpoint Depression Visibility Wind Speed Wind Dir Waves Ship Positions

Joy

Last reported at 2014-Nov-21 18:33 UTC. Time now 2014-Nov-21 19:21 UTC.
Position N 51°58' E 004°07'.

Length 105 m; draft 3.3 m.

Type: Cargo ship. MMSI: 305444000.

Date/timePositionNaut miles runAvg speedWind from/ knotsBaromVisibWave heightAir tempDewpointWater temp
2014-Nov-21 18:33N 51°58' E 004°07'0 0.0
2014-Nov-21 17:33N 51°58' E 004°07'0 0.0
2014-Nov-21 16:33N 51°58' E 004°07'0 0.0
2014-Nov-21 15:33N 51°58' E 004°07'0 0.0
2014-Nov-21 14:33N 51°58' E 004°07'0 0.0
2014-Nov-21 13:33N 51°58' E 004°07'0 0.0
2014-Nov-21 12:33N 51°58' E 004°07'0 0.0
2014-Nov-21 11:33N 51°58' E 004°07'0 0.0
2014-Nov-21 10:33N 51°58' E 004°07'0 0.0
2014-Nov-21 09:33N 51°58' E 004°07'0 0.0
2014-Nov-21 08:33N 51°58' E 004°07'0 0.3
2014-Nov-21 07:32N 51°57' E 004°08'0 0.0
2014-Nov-21 06:32N 51°57' E 004°08'0 0.0
2014-Nov-21 05:32N 51°57' E 004°08'0 0.0
2014-Nov-21 04:32N 51°57' E 004°08'0 0.0
2014-Nov-21 03:32N 51°57' E 004°08'0 0.0
2014-Nov-21 02:32N 51°57' E 004°08'0 0.0
2014-Nov-21 01:32N 51°57' E 004°08'0 0.0
2014-Nov-21 00:32N 51°57' E 004°08'0 0.0
2014-Nov-20 23:32N 51°57' E 004°08'0 0.0
2014-Nov-20 22:32N 51°57' E 004°08'0 0.0
2014-Nov-20 21:32N 51°57' E 004°08'0 0.0
2014-Nov-20 20:32N 51°57' E 004°08'0 0.0
2014-Nov-20 19:32N 51°57' E 004°08'0 0.0
2014-Nov-20 18:32N 51°57' E 004°08'0 0.0
2014-Nov-20 17:32N 51°57' E 004°08'0 0.0
2014-Nov-20 16:32N 51°57' E 004°08'0 0.0
2014-Nov-20 15:32N 51°57' E 004°08'0 0.0
2014-Nov-20 14:32N 51°57' E 004°08'0 0.0
2014-Nov-20 13:32N 51°57' E 004°08'0 0.0
2014-Nov-20 12:32N 51°57' E 004°08'0 0.0
2014-Nov-20 11:32N 51°57' E 004°08'0 0.0
2014-Nov-20 10:32N 51°57' E 004°08'0 0.0
2014-Nov-20 09:32N 51°57' E 004°08'0 0.0
2014-Nov-20 08:31N 51°57' E 004°08'0 0.0
2014-Nov-20 07:31N 51°57' E 004°08'0 0.0
2014-Nov-20 06:31N 51°57' E 004°08'0 0.0
2014-Nov-20 05:31N 51°57' E 004°08'0 0.0
2014-Nov-20 04:31N 51°57' E 004°08'0 0.0
2014-Nov-20 03:31N 51°57' E 004°08'0 0.0
2014-Nov-20 02:31N 51°57' E 004°08'0 0.0
2014-Nov-20 01:31N 51°57' E 004°08'0 0.0
2014-Nov-20 00:31N 51°57' E 004°08'0 0.0
2014-Nov-19 23:31N 51°57' E 004°08'0 0.0
2014-Nov-19 22:31N 51°57' E 004°08'0 0.0
2014-Nov-19 21:31N 51°57' E 004°08'0 0.0
2014-Nov-19 20:28N 51°57' E 004°08'0 0.0
2014-Nov-19 19:28N 51°57' E 004°08'0 0.0
2014-Nov-19 18:28N 51°57' E 004°08'0 0.0
2014-Nov-19 17:31N 51°57' E 004°08'0 0.0
2014-Nov-19 16:31N 51°57' E 004°08'0 0.0
2014-Nov-19 15:28N 51°57' E 004°08'0 0.0
2014-Nov-19 14:34N 51°57' E 004°08'4 4.3
2014-Nov-19 13:33N 51°60' E 004°01'1110.6
2014-Nov-19 12:33N 51°59' E 003°44'23 7.7
2014-Nov-19 09:33N 51°43' E 003°17'1111.0
2014-Nov-19 08:33N 51°33' E 003°25'9 9.5
2014-Nov-19 07:34N 51°26' E 003°35'1010.3
2014-Nov-19 06:34N 51°20' E 003°49'1 1.4
2014-Nov-19 05:34N 51°19' E 003°50'6 6.3
2014-Nov-19 04:33N 51°13' E 003°48'8 7.7
2014-Nov-19 03:32N 51°06' E 003°44'0 0.0
2014-Nov-19 02:30N 51°06' E 003°44'0 0.0
2014-Nov-19 01:33N 51°06' E 003°44'0 0.0
2014-Nov-19 00:33N 51°06' E 003°44'0 0.0
2014-Nov-18 23:33N 51°06' E 003°44'0 0.0
2014-Nov-18 22:33N 51°06' E 003°44'0 0.0
2014-Nov-18 21:33N 51°06' E 003°44'0 0.0
2014-Nov-18 20:34N 51°06' E 003°44'0 0.0
2014-Nov-18 19:29N 51°06' E 003°44'0 0.0
2014-Nov-18 18:32N 51°06' E 003°44'0 0.0
2014-Nov-18 17:32N 51°06' E 003°44'0 0.0
2014-Nov-18 16:33N 51°06' E 003°44'0 0.0
2014-Nov-18 15:33N 51°06' E 003°44'0 0.0
2014-Nov-18 14:34N 51°06' E 003°44'0 0.0
2014-Nov-18 13:33N 51°06' E 003°44'0 0.0
2014-Nov-18 12:33N 51°06' E 003°44'0 0.0
2014-Nov-18 11:33N 51°06' E 003°44'0 0.0
2014-Nov-18 10:32N 51°06' E 003°44'0 0.0
2014-Nov-18 09:34N 51°06' E 003°44'0 0.0
2014-Nov-18 08:33N 51°06' E 003°44'0 0.0
2014-Nov-18 07:32N 51°06' E 003°44'0 0.0
2014-Nov-18 06:29N 51°06' E 003°44'0 0.0
2014-Nov-18 05:33N 51°06' E 003°44'0 0.1
2014-Nov-18 04:34N 51°05' E 003°44'0 0.0
2014-Nov-18 03:33N 51°05' E 003°44'0 0.0
2014-Nov-18 02:33N 51°05' E 003°44'0 0.0
2014-Nov-18 01:33N 51°05' E 003°44'0 0.0
2014-Nov-18 00:27N 51°05' E 003°44'0 0.0
2014-Nov-17 23:33N 51°05' E 003°44'0 0.0
2014-Nov-17 22:27N 51°05' E 003°44'0 0.0
2014-Nov-17 21:33N 51°05' E 003°44'0 0.0
2014-Nov-17 20:27N 51°05' E 003°44'0 0.0
2014-Nov-17 19:33N 51°05' E 003°44'0 0.0
2014-Nov-17 18:33N 51°05' E 003°44'0 0.0
2014-Nov-17 17:33N 51°05' E 003°44'0 0.0
2014-Nov-17 16:33N 51°05' E 003°44'0 0.0
2014-Nov-17 15:33N 51°05' E 003°44'0 0.0
2014-Nov-17 14:33N 51°05' E 003°44'0 0.0
2014-Nov-17 13:33N 51°05' E 003°44'0 0.0
2014-Nov-17 12:33N 51°05' E 003°44'0 0.0
2014-Nov-17 11:33N 51°05' E 003°44'0 0.0
2014-Nov-17 10:33N 51°05' E 003°44'0 0.0
2014-Nov-17 09:33N 51°05' E 003°44'0 0.0
2014-Nov-17 08:33N 51°05' E 003°44'0 0.0
2014-Nov-17 07:32N 51°05' E 003°44'0 0.0
2014-Nov-17 06:32N 51°05' E 003°44'0 0.0
2014-Nov-17 05:26N 51°05' E 003°44'0 0.0
2014-Nov-17 04:32N 51°05' E 003°44'0 0.0
2014-Nov-17 03:32N 51°05' E 003°44'0 0.0
2014-Nov-17 02:32N 51°05' E 003°44'0 0.0
2014-Nov-17 01:34N 51°05' E 003°44'0 0.0
2014-Nov-17 00:29N 51°05' E 003°44'0 0.0
2014-Nov-16 23:32N 51°05' E 003°44'0 0.0
2014-Nov-16 22:32N 51°05' E 003°44'0 0.0
2014-Nov-16 21:32N 51°05' E 003°44'0 0.0
2014-Nov-16 20:32N 51°05' E 003°44'0 0.0
2014-Nov-16 19:32N 51°05' E 003°44'0 0.0
2014-Nov-16 18:32N 51°05' E 003°44'0 0.0
2014-Nov-16 17:32N 51°05' E 003°44'0 0.0
2014-Nov-16 16:32N 51°05' E 003°44'0 0.0
2014-Nov-16 15:23N 51°05' E 003°44'0 0.0
2014-Nov-16 14:32N 51°05' E 003°44'0 0.0
2014-Nov-16 13:26N 51°05' E 003°44'0 0.0
2014-Nov-16 12:32N 51°05' E 003°44'0 0.0
2014-Nov-16 11:32N 51°05' E 003°44'0 0.0
2014-Nov-16 10:32N 51°05' E 003°44'0 0.0
2014-Nov-16 09:32N 51°05' E 003°44'0 0.0
2014-Nov-16 08:32N 51°05' E 003°44'0 0.0
2014-Nov-16 07:33N 51°05' E 003°44'4 3.6
2014-Nov-16 06:34N 51°09' E 003°47'8 7.5
2014-Nov-16 05:34N 51°16' E 003°50'4 3.9
2014-Nov-16 04:33N 51°20' E 003°49'4 3.8
2014-Nov-16 03:33N 51°22' E 003°44'8 7.9
2014-Nov-16 02:33N 51°25' E 003°32'7 6.9
2014-Nov-16 01:33N 51°24' E 003°22'12 9.4
2014-Nov-16 00:15N 51°24' E 003°02'13 7.5
2014-Nov-15 22:33N 51°26' E 002°42'1 1.3
2014-Nov-15 21:34N 51°24' E 002°41'3 3.3
2014-Nov-15 20:33N 51°28' E 002°42'3 3.4
2014-Nov-15 19:33N 51°31' E 002°42'135 9.6
2014-Nov-15 05:32N 53°27' E 004°37'1110.9
2014-Nov-15 04:33N 53°32' E 004°52'1111.1
2014-Nov-15 03:33N 53°36' E 005°10'1010.4
2014-Nov-15 02:33N 53°39' E 005°27'10 9.8
2014-Nov-15 01:33N 53°42' E 005°42'10 9.7
2014-Nov-15 00:33N 53°46' E 005°58'5510.7
2014-Nov-14 19:25N 53°60' E 007°28'1011.2
2014-Nov-14 18:33N 54°02' E 007°44'1111.2
2014-Nov-14 17:33N 54°01' E 008°03'9 9.5
2014-Nov-14 16:33N 53°60' E 008°19'1010.3
2014-Nov-14 15:33N 53°58' E 008°36'9 8.8
2014-Nov-14 14:33N 53°51' E 008°46'14 7.0
2014-Nov-14 12:33N 53°54' E 009°09'8 8.0
2014-Nov-14 11:33N 53°60' E 009°18'9 8.8
2014-Nov-14 10:33N 54°09' E 009°21'9 9.1
2014-Nov-14 09:32N 54°13' E 009°35'8 7.8
2014-Nov-14 08:33N 54°19' E 009°43'7 7.3
2014-Nov-14 07:33N 54°21' E 009°55'8 7.9
2014-Nov-14 06:33N 54°22' E 010°08'4 3.9
2014-Nov-14 05:33N 54°25' E 010°12'9 9.4
2014-Nov-14 04:33N 54°32' E 010°24'9 9.4
2014-Nov-14 03:33N 54°35' E 010°39'3110.4
2014-Nov-14 00:33N 54°30' E 011°32'1110.7
2014-Nov-13 23:33N 54°27' E 011°50'1111.1
2014-Nov-13 22:33N 54°27' E 012°09'8310.2
2014-Nov-13 14:25N 55°10' E 014°13'1111.5
2014-Nov-13 13:29N 55°18' E 014°24'1210.9
2014-Nov-13 12:22N 55°27' E 014°39'3510.9
2014-Nov-13 09:09N 55°46' E 015°32'810.9
2014-Nov-13 08:28N 55°49' E 015°43'1410.9
2014-Nov-13 07:13N 55°56' E 016°05'710.9
2014-Nov-13 06:33N 55°59' E 016°16'29910.6
2014-Nov-12 02:24N 59°33' E 022°49'910.7
2014-Nov-12 01:31N 59°36' E 023°07'1010.8
2014-Nov-12 00:33N 59°39' E 023°26'1110.7
2014-Nov-11 23:33N 59°42' E 023°46'2110.5
2014-Nov-11 21:34N 59°48' E 024°27'  
Track history (hours):
 
Tides and Currents Weather Stations Pressure Air Temp Water Temp Dewpoint Dewpoint Depression Visibility Wind Speed Wind Dir Waves Ship Positions

Joy

Last reported at 2014-Nov-21 18:33 UTC. Time now 2014-Nov-21 19:21 UTC.
Position N 51°58' E 004°07'.

Length 105 m; draft 3.3 m.

Type: Cargo ship. MMSI: 305444000.

Date/timePositionNaut miles runAvg speedWind from/ knotsBaromVisibWave heightAir tempDewpointWater temp
2014-Nov-21 18:33N 51°58' E 004°07'0 0.0
2014-Nov-21 17:33N 51°58' E 004°07'0 0.0
2014-Nov-21 16:33N 51°58' E 004°07'0 0.0
2014-Nov-21 15:33N 51°58' E 004°07'0 0.0
2014-Nov-21 14:33N 51°58' E 004°07'0 0.0
2014-Nov-21 13:33N 51°58' E 004°07'0 0.0
2014-Nov-21 12:33N 51°58' E 004°07'0 0.0
2014-Nov-21 11:33N 51°58' E 004°07'0 0.0
2014-Nov-21 10:33N 51°58' E 004°07'0 0.0
2014-Nov-21 09:33N 51°58' E 004°07'0 0.0
2014-Nov-21 08:33N 51°58' E 004°07'0 0.3
2014-Nov-21 07:32N 51°57' E 004°08'0 0.0
2014-Nov-21 06:32N 51°57' E 004°08'0 0.0
2014-Nov-21 05:32N 51°57' E 004°08'0 0.0
2014-Nov-21 04:32N 51°57' E 004°08'0 0.0
2014-Nov-21 03:32N 51°57' E 004°08'0 0.0
2014-Nov-21 02:32N 51°57' E 004°08'0 0.0
2014-Nov-21 01:32N 51°57' E 004°08'0 0.0
2014-Nov-21 00:32N 51°57' E 004°08'0 0.0
2014-Nov-20 23:32N 51°57' E 004°08'0 0.0
2014-Nov-20 22:32N 51°57' E 004°08'0 0.0
2014-Nov-20 21:32N 51°57' E 004°08'0 0.0
2014-Nov-20 20:32N 51°57' E 004°08'0 0.0
2014-Nov-20 19:32N 51°57' E 004°08'0 0.0
2014-Nov-20 18:32N 51°57' E 004°08'0 0.0
2014-Nov-20 17:32N 51°57' E 004°08'0 0.0
2014-Nov-20 16:32N 51°57' E 004°08'0 0.0
2014-Nov-20 15:32N 51°57' E 004°08'0 0.0
2014-Nov-20 14:32N 51°57' E 004°08'0 0.0
2014-Nov-20 13:32N 51°57' E 004°08'0 0.0
2014-Nov-20 12:32N 51°57' E 004°08'0 0.0
2014-Nov-20 11:32N 51°57' E 004°08'0 0.0
2014-Nov-20 10:32N 51°57' E 004°08'0 0.0
2014-Nov-20 09:32N 51°57' E 004°08'0 0.0
2014-Nov-20 08:31N 51°57' E 004°08'0 0.0
2014-Nov-20 07:31N 51°57' E 004°08'0 0.0
2014-Nov-20 06:31N 51°57' E 004°08'0 0.0
2014-Nov-20 05:31N 51°57' E 004°08'0 0.0
2014-Nov-20 04:31N 51°57' E 004°08'0 0.0
2014-Nov-20 03:31N 51°57' E 004°08'0 0.0
2014-Nov-20 02:31N 51°57' E 004°08'0 0.0
2014-Nov-20 01:31N 51°57' E 004°08'0 0.0
2014-Nov-20 00:31N 51°57' E 004°08'0 0.0
2014-Nov-19 23:31N 51°57' E 004°08'0 0.0
2014-Nov-19 22:31N 51°57' E 004°08'0 0.0
2014-Nov-19 21:31N 51°57' E 004°08'0 0.0
2014-Nov-19 20:28N 51°57' E 004°08'0 0.0
2014-Nov-19 19:28N 51°57' E 004°08'0 0.0
2014-Nov-19 18:28N 51°57' E 004°08'0 0.0
2014-Nov-19 17:31N 51°57' E 004°08'0 0.0
2014-Nov-19 16:31N 51°57' E 004°08'0 0.0
2014-Nov-19 15:28N 51°57' E 004°08'0 0.0
2014-Nov-19 14:34N 51°57' E 004°08'4 4.3
2014-Nov-19 13:33N 51°60' E 004°01'1110.6
2014-Nov-19 12:33N 51°59' E 003°44'23 7.7
2014-Nov-19 09:33N 51°43' E 003°17'1111.0
2014-Nov-19 08:33N 51°33' E 003°25'9 9.5
2014-Nov-19 07:34N 51°26' E 003°35'1010.3
2014-Nov-19 06:34N 51°20' E 003°49'1 1.4
2014-Nov-19 05:34N 51°19' E 003°50'6 6.3
2014-Nov-19 04:33N 51°13' E 003°48'8 7.7
2014-Nov-19 03:32N 51°06' E 003°44'0 0.0
2014-Nov-19 02:30N 51°06' E 003°44'0 0.0
2014-Nov-19 01:33N 51°06' E 003°44'0 0.0
2014-Nov-19 00:33N 51°06' E 003°44'0 0.0
2014-Nov-18 23:33N 51°06' E 003°44'0 0.0
2014-Nov-18 22:33N 51°06' E 003°44'0 0.0
2014-Nov-18 21:33N 51°06' E 003°44'0 0.0
2014-Nov-18 20:34N 51°06' E 003°44'0 0.0
2014-Nov-18 19:29N 51°06' E 003°44'0 0.0
2014-Nov-18 18:32N 51°06' E 003°44'0 0.0
2014-Nov-18 17:32N 51°06' E 003°44'0 0.0
2014-Nov-18 16:33N 51°06' E 003°44'0 0.0
2014-Nov-18 15:33N 51°06' E 003°44'0 0.0
2014-Nov-18 14:34N 51°06' E 003°44'0 0.0
2014-Nov-18 13:33N 51°06' E 003°44'0 0.0
2014-Nov-18 12:33N 51°06' E 003°44'0 0.0
2014-Nov-18 11:33N 51°06' E 003°44'0 0.0
2014-Nov-18 10:32N 51°06' E 003°44'0 0.0
2014-Nov-18 09:34N 51°06' E 003°44'0 0.0
2014-Nov-18 08:33N 51°06' E 003°44'0 0.0
2014-Nov-18 07:32N 51°06' E 003°44'0 0.0
2014-Nov-18 06:29N 51°06' E 003°44'0 0.0
2014-Nov-18 05:33N 51°06' E 003°44'0 0.1
2014-Nov-18 04:34N 51°05' E 003°44'0 0.0
2014-Nov-18 03:33N 51°05' E 003°44'0 0.0
2014-Nov-18 02:33N 51°05' E 003°44'0 0.0
2014-Nov-18 01:33N 51°05' E 003°44'0 0.0
2014-Nov-18 00:27N 51°05' E 003°44'0 0.0
2014-Nov-17 23:33N 51°05' E 003°44'0 0.0
2014-Nov-17 22:27N 51°05' E 003°44'0 0.0
2014-Nov-17 21:33N 51°05' E 003°44'0 0.0
2014-Nov-17 20:27N 51°05' E 003°44'0 0.0
2014-Nov-17 19:33N 51°05' E 003°44'0 0.0
2014-Nov-17 18:33N 51°05' E 003°44'0 0.0
2014-Nov-17 17:33N 51°05' E 003°44'0 0.0
2014-Nov-17 16:33N 51°05' E 003°44'0 0.0
2014-Nov-17 15:33N 51°05' E 003°44'0 0.0
2014-Nov-17 14:33N 51°05' E 003°44'0 0.0
2014-Nov-17 13:33N 51°05' E 003°44'0 0.0
2014-Nov-17 12:33N 51°05' E 003°44'0 0.0
2014-Nov-17 11:33N 51°05' E 003°44'0 0.0
2014-Nov-17 10:33N 51°05' E 003°44'0 0.0
2014-Nov-17 09:33N 51°05' E 003°44'0 0.0
2014-Nov-17 08:33N 51°05' E 003°44'0 0.0
2014-Nov-17 07:32N 51°05' E 003°44'0 0.0
2014-Nov-17 06:32N 51°05' E 003°44'0 0.0
2014-Nov-17 05:26N 51°05' E 003°44'0 0.0
2014-Nov-17 04:32N 51°05' E 003°44'0 0.0
2014-Nov-17 03:32N 51°05' E 003°44'0 0.0
2014-Nov-17 02:32N 51°05' E 003°44'0 0.0
2014-Nov-17 01:34N 51°05' E 003°44'0 0.0
2014-Nov-17 00:29N 51°05' E 003°44'0 0.0
2014-Nov-16 23:32N 51°05' E 003°44'0 0.0
2014-Nov-16 22:32N 51°05' E 003°44'0 0.0
2014-Nov-16 21:32N 51°05' E 003°44'0 0.0
2014-Nov-16 20:32N 51°05' E 003°44'0 0.0
2014-Nov-16 19:32N 51°05' E 003°44'0 0.0
2014-Nov-16 18:32N 51°05' E 003°44'0 0.0
2014-Nov-16 17:32N 51°05' E 003°44'0 0.0
2014-Nov-16 16:32N 51°05' E 003°44'0 0.0
2014-Nov-16 15:23N 51°05' E 003°44'0 0.0
2014-Nov-16 14:32N 51°05' E 003°44'0 0.0
2014-Nov-16 13:26N 51°05' E 003°44'0 0.0
2014-Nov-16 12:32N 51°05' E 003°44'0 0.0
2014-Nov-16 11:32N 51°05' E 003°44'0 0.0
2014-Nov-16 10:32N 51°05' E 003°44'0 0.0
2014-Nov-16 09:32N 51°05' E 003°44'0 0.0
2014-Nov-16 08:32N 51°05' E 003°44'0 0.0
2014-Nov-16 07:33N 51°05' E 003°44'4 3.6
2014-Nov-16 06:34N 51°09' E 003°47'8 7.5
2014-Nov-16 05:34N 51°16' E 003°50'4 3.9
2014-Nov-16 04:33N 51°20' E 003°49'4 3.8
2014-Nov-16 03:33N 51°22' E 003°44'8 7.9
2014-Nov-16 02:33N 51°25' E 003°32'7 6.9
2014-Nov-16 01:33N 51°24' E 003°22'12 9.4
2014-Nov-16 00:15N 51°24' E 003°02'13 7.5
2014-Nov-15 22:33N 51°26' E 002°42'1 1.3
2014-Nov-15 21:34N 51°24' E 002°41'3 3.3
2014-Nov-15 20:33N 51°28' E 002°42'3 3.4
2014-Nov-15 19:33N 51°31' E 002°42'135 9.6
2014-Nov-15 05:32N 53°27' E 004°37'1110.9
2014-Nov-15 04:33N 53°32' E 004°52'1111.1
2014-Nov-15 03:33N 53°36' E 005°10'1010.4
2014-Nov-15 02:33N 53°39' E 005°27'10 9.8
2014-Nov-15 01:33N 53°42' E 005°42'10 9.7
2014-Nov-15 00:33N 53°46' E 005°58'5510.7
2014-Nov-14 19:25N 53°60' E 007°28'1011.2
2014-Nov-14 18:33N 54°02' E 007°44'1111.2
2014-Nov-14 17:33N 54°01' E 008°03'9 9.5
2014-Nov-14 16:33N 53°60' E 008°19'1010.3
2014-Nov-14 15:33N 53°58' E 008°36'9 8.8
2014-Nov-14 14:33N 53°51' E 008°46'14 7.0
2014-Nov-14 12:33N 53°54' E 009°09'8 8.0
2014-Nov-14 11:33N 53°60' E 009°18'9 8.8
2014-Nov-14 10:33N 54°09' E 009°21'9 9.1
2014-Nov-14 09:32N 54°13' E 009°35'8 7.8
2014-Nov-14 08:33N 54°19' E 009°43'7 7.3
2014-Nov-14 07:33N 54°21' E 009°55'8 7.9
2014-Nov-14 06:33N 54°22' E 010°08'4 3.9
2014-Nov-14 05:33N 54°25' E 010°12'9 9.4
2014-Nov-14 04:33N 54°32' E 010°24'9 9.4
2014-Nov-14 03:33N 54°35' E 010°39'3110.4
2014-Nov-14 00:33N 54°30' E 011°32'1110.7
2014-Nov-13 23:33N 54°27' E 011°50'1111.1
2014-Nov-13 22:33N 54°27' E 012°09'8310.2
2014-Nov-13 14:25N 55°10' E 014°13'1111.5
2014-Nov-13 13:29N 55°18' E 014°24'1210.9
2014-Nov-13 12:22N 55°27' E 014°39'3510.9
2014-Nov-13 09:09N 55°46' E 015°32'810.9
2014-Nov-13 08:28N 55°49' E 015°43'1410.9
2014-Nov-13 07:13N 55°56' E 016°05'710.9
2014-Nov-13 06:33N 55°59' E 016°16'29910.6
2014-Nov-12 02:24N 59°33' E 022°49'910.7
2014-Nov-12 01:31N 59°36' E 023°07'1010.8
2014-Nov-12 00:33N 59°39' E 023°26'1110.7
2014-Nov-11 23:33N 59°42' E 023°46'2110.5
2014-Nov-11 21:34N 59°48' E 024°27'  

Dump ship's entire track history